createdAt,value
2023-03-26T00:03:34.421Z,99018.16
2023-03-26T00:09:01.738Z,99013.84
2023-03-26T00:14:30.220Z,99010.53
2023-03-26T00:19:57.631Z,99018.31
2023-03-26T00:25:24.809Z,99003.34
2023-03-26T00:31:01.940Z,98998.56
2023-03-26T00:36:29.795Z,99000.47
2023-03-26T00:41:57.805Z,98991.22
2023-03-26T00:47:26.325Z,98990.53
2023-03-26T00:52:56.045Z,98981.00
2023-03-26T00:58:25.034Z,98981.69
2023-03-26T01:04:08.111Z,98978.75
2023-03-26T01:09:43.061Z,98987.75
2023-03-26T01:15:10.640Z,98976.91
2023-03-26T01:20:46.899Z,98976.66
2023-03-26T01:26:27.896Z,98981.91
2023-03-26T01:32:16.953Z,98995.72
2023-03-26T01:38:11.159Z,98982.97
2023-03-26T01:43:54.195Z,98981.97
2023-03-26T01:49:21.785Z,98989.81
2023-03-26T01:54:49.374Z,98986.38
2023-03-26T02:00:23.179Z,98976.38
2023-03-26T02:06:11.536Z,98964.38
2023-03-26T02:11:41.948Z,98962.19
2023-03-26T02:17:11.095Z,98962.72
2023-03-26T02:22:42.024Z,98960.28
2023-03-26T02:28:11.233Z,98962.59
2023-03-26T02:33:39.927Z,98955.34
2023-03-26T02:39:07.179Z,98963.44
2023-03-26T02:44:40.694Z,98957.66
2023-03-26T02:50:19.961Z,98957.00
2023-03-26T02:56:17.612Z,98958.72
2023-03-26T03:01:59.409Z,98946.25
2023-03-26T03:07:27.496Z,98941.56
2023-03-26T03:12:55.490Z,98951.03
2023-03-26T03:18:24.005Z,98962.91
2023-03-26T03:23:51.596Z,98954.09
2023-03-26T03:29:19.076Z,98955.13
2023-03-26T03:34:46.569Z,98961.88
2023-03-26T03:40:14.428Z,98958.50
2023-03-26T03:45:41.961Z,98967.75
2023-03-26T03:51:42.719Z,98969.13
2023-03-26T03:57:19.400Z,98975.19
2023-03-26T04:03:07.418Z,98974.88
2023-03-26T04:08:35.835Z,98984.00
2023-03-26T04:14:05.362Z,98988.25
2023-03-26T04:19:46.221Z,98989.63
2023-03-26T04:25:16.578Z,98989.81
2023-03-26T04:31:05.079Z,98992.41
2023-03-26T04:36:37.551Z,98996.78
2023-03-26T04:42:05.703Z,98994.41
2023-03-26T04:47:46.848Z,98999.13
2023-03-26T04:53:17.266Z,99001.66
2023-03-26T04:59:04.345Z,99002.50
2023-03-26T05:04:39.901Z,98994.16
2023-03-26T05:10:14.011Z,98997.09
2023-03-26T05:16:08.195Z,98992.16
2023-03-26T05:21:50.722Z,98998.50
2023-03-26T05:27:21.904Z,99001.78
2023-03-26T05:32:50.253Z,98998.03
2023-03-26T05:38:21.872Z,99001.13
2023-03-26T05:43:49.678Z,98996.41
2023-03-26T05:49:36.585Z,98996.75
2023-03-26T05:55:04.139Z,98997.03
2023-03-26T06:00:50.194Z,99003.44
2023-03-26T06:06:28.863Z,99006.50
2023-03-26T06:11:57.940Z,99006.16
2023-03-26T06:17:28.904Z,99005.66
2023-03-26T06:23:08.844Z,98998.91
2023-03-26T06:28:56.852Z,99010.97
2023-03-26T06:34:39.950Z,99012.84
2023-03-26T06:40:08.717Z,99014.91
2023-03-26T06:45:53.407Z,99012.97
2023-03-26T06:51:40.987Z,99011.06
2023-03-26T06:57:08.877Z,99018.00
2023-03-26T07:03:11.884Z,99018.72
2023-03-26T07:08:58.048Z,99008.25
2023-03-26T07:14:46.859Z,99029.69
2023-03-26T07:20:54.395Z,99044.56
2023-03-26T07:26:45.819Z,99032.97
2023-03-26T07:32:32.564Z,99029.25
2023-03-26T07:38:42.249Z,99031.13
2023-03-26T07:44:47.637Z,99027.25
2023-03-26T07:50:42.131Z,99026.38
2023-03-26T07:56:37.733Z,99023.69
2023-03-26T08:02:56.144Z,99021.69
2023-03-26T08:09:20.790Z,99008.22
2023-03-26T08:16:06.042Z,99007.19
2023-03-26T08:21:45.445Z,99006.81
2023-03-26T08:27:50.336Z,99003.09
2023-03-26T08:33:22.420Z,98988.59
2023-03-26T08:38:51.324Z,98984.44
2023-03-26T08:44:37.039Z,98975.78
2023-03-26T08:50:38.664Z,98976.97
2023-03-26T08:56:20.493Z,98970.47
2023-03-26T09:01:58.070Z,98974.75
2023-03-26T09:07:24.962Z,98974.41
2023-03-26T09:13:28.265Z,98977.81
2023-03-26T09:19:25.914Z,98969.69
2023-03-26T09:25:09.670Z,98963.91
2023-03-26T09:31:04.283Z,98956.66
2023-03-26T09:36:54.201Z,98952.25
2023-03-26T09:42:41.591Z,98960.88
2023-03-26T09:48:39.000Z,98959.09
2023-03-26T09:54:48.878Z,98969.66
2023-03-26T10:00:24.348Z,98970.53
2023-03-26T10:06:28.846Z,98963.03
2023-03-26T10:12:09.332Z,98970.50
2023-03-26T10:18:27.638Z,98972.59
2023-03-26T10:24:18.494Z,98974.94
2023-03-26T10:29:55.388Z,98964.31
2023-03-26T10:35:25.578Z,98954.38
2023-03-26T10:41:11.486Z,98953.09
2023-03-26T10:47:26.859Z,98944.44
2023-03-26T10:53:26.606Z,98927.00
2023-03-26T10:58:58.646Z,98940.72
2023-03-26T11:04:40.994Z,98936.06
2023-03-26T11:10:29.636Z,98933.75
2023-03-26T11:16:08.883Z,98914.00
2023-03-26T11:21:44.700Z,98909.69
2023-03-26T11:27:34.669Z,98909.63
2023-03-26T11:33:07.260Z,98910.50
2023-03-26T11:38:51.355Z,98905.97
2023-03-26T11:44:32.437Z,98898.38
2023-03-26T11:50:03.113Z,98901.84
2023-03-26T11:55:34.188Z,98892.72
2023-03-26T12:01:05.657Z,98889.69
2023-03-26T12:06:38.324Z,98884.84
2023-03-26T12:12:07.757Z,98882.19
2023-03-26T12:17:40.463Z,98886.16
2023-03-26T12:23:27.490Z,98880.97
2023-03-26T12:28:54.772Z,98875.16
2023-03-26T12:34:30.951Z,98869.13
2023-03-26T12:40:27.701Z,98862.75
2023-03-26T12:47:56.539Z,98854.47
2023-03-26T12:51:54.152Z,98849.31
2023-03-26T12:57:25.443Z,98848.91
2023-03-26T13:03:11.601Z,98838.94
2023-03-26T13:09:08.758Z,98832.69
2023-03-26T13:14:54.142Z,98830.09
2023-03-26T13:20:49.767Z,98830.16
2023-03-26T13:26:46.743Z,98819.53
2023-03-26T13:32:25.409Z,98821.16
2023-03-26T13:38:11.977Z,98819.78
2023-03-26T13:44:06.927Z,98825.91
2023-03-26T13:49:41.991Z,98821.47
2023-03-26T13:55:22.530Z,98813.38
2023-03-26T14:01:04.475Z,98821.91
2023-03-26T14:06:42.927Z,98824.81
2023-03-26T14:12:49.448Z,98812.03
2023-03-26T14:18:38.742Z,98806.59
2023-03-26T14:24:14.366Z,98801.88
2023-03-26T14:29:56.319Z,98790.41
2023-03-26T14:35:40.368Z,98787.34
2023-03-26T14:41:35.712Z,98787.53
2023-03-26T14:47:16.005Z,98779.00
2023-03-26T14:52:51.920Z,98783.28
2023-03-26T14:58:56.974Z,98769.22
2023-03-26T15:04:42.319Z,98777.97
2023-03-26T15:10:36.249Z,98768.47
2023-03-26T15:16:28.261Z,98772.72
2023-03-26T15:22:00.844Z,98766.72
2023-03-26T15:27:35.887Z,98769.72
2023-03-26T15:33:06.691Z,98759.34
2023-03-26T15:39:03.378Z,98759.78
2023-03-26T15:44:43.765Z,98796.22
2023-03-26T15:50:32.717Z,98812.44
2023-03-26T15:56:22.466Z,98790.31
2023-03-26T16:02:22.945Z,98775.00
2023-03-26T16:08:15.794Z,98758.41
2023-03-26T16:13:51.026Z,98752.78
2023-03-26T16:19:22.050Z,98760.88
2023-03-26T16:25:26.512Z,98744.03
2023-03-26T16:31:36.066Z,98749.03
2023-03-26T16:37:02.833Z,98745.19
2023-03-26T16:42:40.854Z,98742.03
2023-03-26T16:48:08.752Z,98743.22
2023-03-26T16:54:15.184Z,98739.84
2023-03-26T17:00:17.018Z,98737.31
2023-03-26T17:06:02.397Z,98732.38
2023-03-26T17:11:47.372Z,98732.56
2023-03-26T17:17:37.147Z,98731.81
2023-03-26T17:23:30.942Z,98729.78
2023-03-26T17:29:50.227Z,98725.88
2023-03-26T17:35:17.901Z,98739.38
2023-03-26T17:40:56.615Z,98733.63
2023-03-26T17:46:41.967Z,98738.38
2023-03-26T17:52:48.320Z,98750.31
2023-03-26T17:58:50.605Z,98753.09
2023-03-26T18:04:29.443Z,98752.66
2023-03-26T18:10:09.095Z,98756.41
2023-03-26T18:15:49.188Z,98757.44
2023-03-26T18:21:44.208Z,98754.75
2023-03-26T18:27:17.479Z,98752.69
2023-03-26T18:33:02.826Z,98752.53
2023-03-26T18:38:38.035Z,98743.91
2023-03-26T18:44:17.271Z,98746.63
2023-03-26T18:49:48.955Z,98736.47
2023-03-26T18:55:17.134Z,98732.41
2023-03-26T19:00:46.276Z,98729.63
2023-03-26T19:06:16.048Z,98718.59
2023-03-26T19:11:45.676Z,98713.03
2023-03-26T19:17:13.269Z,98714.91
2023-03-26T19:22:43.867Z,98704.91
2023-03-26T19:28:18.548Z,98702.41
2023-03-26T19:33:46.688Z,98698.19
2023-03-26T19:39:17.297Z,98694.81
2023-03-26T19:44:52.117Z,98694.09
2023-03-26T19:50:30.250Z,98680.78
2023-03-26T19:56:06.322Z,98693.97
2023-03-26T20:01:34.804Z,98685.53
2023-03-26T20:07:01.851Z,98683.16
2023-03-26T20:12:29.027Z,98685.25
2023-03-26T20:17:56.668Z,98680.28
2023-03-26T20:23:25.760Z,98664.75
2023-03-26T20:28:54.204Z,98664.06
2023-03-26T20:34:24.602Z,98656.34
2023-03-26T20:39:51.938Z,98653.81
2023-03-26T20:45:22.109Z,98652.66
2023-03-26T20:50:50.941Z,98636.44
2023-03-26T20:56:20.947Z,98638.97
2023-03-26T21:01:50.173Z,98636.09
2023-03-26T21:07:20.673Z,98638.59
2023-03-26T21:13:11.717Z,98627.09
2023-03-26T21:18:40.616Z,98636.19
2023-03-26T21:24:18.614Z,98653.69
2023-03-26T21:29:47.281Z,98646.41
2023-03-26T21:35:16.826Z,98636.56
2023-03-26T21:40:52.918Z,98632.66
2023-03-26T21:46:28.080Z,98642.13
2023-03-26T21:51:57.563Z,98626.78
2023-03-26T21:57:43.318Z,98617.03
2023-03-26T22:03:28.452Z,98629.72
2023-03-26T22:08:56.703Z,98617.41
2023-03-26T22:14:26.001Z,98622.50
2023-03-26T22:19:53.944Z,98636.34
2023-03-26T22:25:23.198Z,98626.38
2023-03-26T22:30:50.396Z,98626.75
2023-03-26T22:36:22.712Z,98633.34
2023-03-26T22:41:51.636Z,98633.69
2023-03-26T22:47:21.974Z,98632.50
2023-03-26T22:52:49.680Z,98640.78
2023-03-26T22:58:17.478Z,98634.53
2023-03-26T23:03:45.089Z,98627.94
2023-03-26T23:09:13.404Z,98622.72
2023-03-26T23:14:41.716Z,98628.41
2023-03-26T23:20:15.679Z,98620.00
2023-03-26T23:25:47.032Z,98625.34
2023-03-26T23:31:14.511Z,98640.19
2023-03-26T23:36:43.167Z,98646.25
2023-03-26T23:42:11.854Z,98637.69
2023-03-26T23:47:42.536Z,98640.91
2023-03-26T23:53:10.323Z,98645.44
2023-03-26T23:58:37.863Z,98653.91
